createdAt,value
2022-11-20T00:01:06.648Z,100743.31
2022-11-20T00:03:34.444Z,100746.84
2022-11-20T00:06:02.958Z,100736.41
2022-11-20T00:08:30.938Z,100738.91
2022-11-20T00:10:58.712Z,100737.13
2022-11-20T00:13:27.832Z,100739.75
2022-11-20T00:15:59.459Z,100742.03
2022-11-20T00:18:27.412Z,100744.09
2022-11-20T00:20:55.533Z,100733.03
2022-11-20T00:23:23.383Z,100729.66
2022-11-20T00:25:51.158Z,100733.50
2022-11-20T00:28:18.865Z,100731.38
2022-11-20T00:30:48.052Z,100738.25
2022-11-20T00:33:15.797Z,100733.03
2022-11-20T00:35:43.606Z,100735.56
2022-11-20T00:38:11.410Z,100737.63
2022-11-20T00:40:39.155Z,100729.25
2022-11-20T00:43:06.894Z,100726.69
2022-11-20T00:45:34.667Z,100725.72
2022-11-20T00:48:03.765Z,100718.03
2022-11-20T00:50:31.552Z,100719.75
2022-11-20T00:52:59.349Z,100723.84
2022-11-20T00:55:27.051Z,100722.06
2022-11-20T00:57:54.770Z,100728.13
2022-11-20T01:00:22.512Z,100717.22
2022-11-20T01:02:50.347Z,100718.09
2022-11-20T01:05:19.402Z,100733.56
2022-11-20T01:07:47.145Z,100731.78
2022-11-20T01:10:14.932Z,100724.16
2022-11-20T01:12:42.663Z,100728.13
2022-11-20T01:15:11.199Z,100731.50
2022-11-20T01:17:38.993Z,100718.56
2022-11-20T01:20:07.866Z,100726.00
2022-11-20T01:22:36.991Z,100715.72
2022-11-20T01:25:05.201Z,100723.94
2022-11-20T01:27:32.995Z,100713.66
2022-11-20T01:30:01.387Z,100716.97
2022-11-20T01:32:29.343Z,100712.44
2022-11-20T01:34:57.111Z,100711.41
2022-11-20T01:37:24.883Z,100709.22
2022-11-20T01:39:53.999Z,100698.13
2022-11-20T01:42:39.127Z,100702.63
2022-11-20T01:45:40.581Z,100692.88
2022-11-20T01:48:08.385Z,100691.59
2022-11-20T01:50:36.415Z,100699.81
2022-11-20T01:53:07.267Z,100682.19
2022-11-20T01:55:41.154Z,100681.50
2022-11-20T01:58:09.164Z,100686.22
2022-11-20T02:00:37.214Z,100675.72
2022-11-20T02:03:09.157Z,100674.41
2022-11-20T02:05:40.901Z,100671.88
2022-11-20T02:08:08.890Z,100676.66
2022-11-20T02:10:38.006Z,100674.38
2022-11-20T02:13:23.363Z,100676.19
2022-11-20T02:15:52.014Z,100679.63
2022-11-20T02:18:21.754Z,100672.19
2022-11-20T02:20:52.896Z,100671.59
2022-11-20T02:23:27.675Z,100669.25
2022-11-20T02:25:57.846Z,100666.72
2022-11-20T02:28:25.665Z,100667.69
2022-11-20T02:30:53.410Z,100655.34
2022-11-20T02:33:21.115Z,100658.97
2022-11-20T02:35:49.254Z,100661.66
2022-11-20T02:38:17.459Z,100659.91
2022-11-20T02:40:45.401Z,100657.47
2022-11-20T02:43:14.571Z,100643.28
2022-11-20T02:45:42.424Z,100646.81
2022-11-20T02:48:10.228Z,100654.69
2022-11-20T02:50:40.775Z,100646.97
2022-11-20T02:53:08.919Z,100645.31
2022-11-20T02:55:37.365Z,100645.31
2022-11-20T02:58:05.122Z,100640.06
2022-11-20T03:00:34.621Z,100635.69
2022-11-20T03:03:02.368Z,100646.81
2022-11-20T03:05:30.117Z,100641.81
2022-11-20T03:07:57.868Z,100647.13
2022-11-20T03:10:25.618Z,100636.59
2022-11-20T03:12:56.148Z,100637.22
2022-11-20T03:15:24.033Z,100640.13
2022-11-20T03:17:55.581Z,100636.56
2022-11-20T03:20:23.353Z,100640.94
2022-11-20T03:22:51.096Z,100634.06
2022-11-20T03:25:18.804Z,100627.88
2022-11-20T03:27:46.561Z,100626.78
2022-11-20T03:30:15.084Z,100624.09
2022-11-20T03:32:42.916Z,100625.69
2022-11-20T03:35:12.364Z,100619.59
2022-11-20T03:37:40.127Z,100627.47
2022-11-20T03:40:08.973Z,100625.69
2022-11-20T03:42:48.759Z,100618.59
2022-11-20T03:45:17.919Z,100620.16
2022-11-20T03:47:46.039Z,100613.84
2022-11-20T03:50:15.744Z,100611.16
2022-11-20T03:52:43.806Z,100619.97
2022-11-20T03:55:11.691Z,100618.31
2022-11-20T03:57:39.509Z,100621.84
2022-11-20T04:00:08.500Z,100613.28
2022-11-20T04:02:36.376Z,100612.00
2022-11-20T04:05:04.215Z,100604.34
2022-11-20T04:07:33.355Z,100604.16
2022-11-20T04:10:01.092Z,100600.56
2022-11-20T04:12:28.812Z,100595.56
2022-11-20T04:14:56.528Z,100598.06
2022-11-20T04:17:24.235Z,100601.75
2022-11-20T04:19:52.025Z,100593.13
2022-11-20T04:22:19.761Z,100591.78
2022-11-20T04:24:48.856Z,100594.28
2022-11-20T04:27:16.657Z,100592.94
2022-11-20T04:29:44.407Z,100592.88
2022-11-20T04:32:12.123Z,100581.94
2022-11-20T04:34:39.904Z,100595.66
2022-11-20T04:37:07.596Z,100594.72
2022-11-20T04:39:35.353Z,100594.75
2022-11-20T04:42:22.123Z,100592.53
2022-11-20T04:44:49.910Z,100591.66
2022-11-20T04:47:17.636Z,100590.72
2022-11-20T04:49:45.389Z,100602.31
2022-11-20T04:52:13.126Z,100594.06
2022-11-20T04:54:40.865Z,100596.91
2022-11-20T04:57:14.304Z,100594.19
2022-11-20T04:59:42.527Z,100599.78
2022-11-20T05:02:10.644Z,100597.28
2022-11-20T05:04:38.835Z,100598.31
2022-11-20T05:07:06.578Z,100593.03
2022-11-20T05:09:34.395Z,100596.56
2022-11-20T05:12:02.159Z,100598.41
2022-11-20T05:14:31.284Z,100593.94
2022-11-20T05:17:00.763Z,100589.53
2022-11-20T05:19:28.557Z,100583.59
2022-11-20T05:21:56.252Z,100585.88
2022-11-20T05:24:24.034Z,100584.25
2022-11-20T05:26:51.730Z,100575.50
2022-11-20T05:29:19.664Z,100583.53
2022-11-20T05:31:48.945Z,100575.63
2022-11-20T05:34:16.753Z,100585.50
2022-11-20T05:36:44.478Z,100579.75
2022-11-20T05:39:12.211Z,100571.25
2022-11-20T05:41:39.899Z,100575.72
2022-11-20T05:44:07.625Z,100572.41
2022-11-20T05:46:35.326Z,100573.53
2022-11-20T05:49:04.467Z,100570.91
2022-11-20T05:51:32.220Z,100566.09
2022-11-20T05:54:00.383Z,100567.97
2022-11-20T05:56:28.139Z,100570.47
2022-11-20T05:58:55.899Z,100561.06
2022-11-20T06:01:25.116Z,100554.69
2022-11-20T06:03:53.249Z,100551.22
2022-11-20T06:06:22.720Z,100553.72
2022-11-20T06:08:51.147Z,100554.84
2022-11-20T06:11:19.565Z,100555.69
2022-11-20T06:13:48.181Z,100558.94
2022-11-20T06:16:17.991Z,100560.06
2022-11-20T06:18:45.730Z,100550.41
2022-11-20T06:21:15.440Z,100550.88
2022-11-20T06:23:46.237Z,100547.34
2022-11-20T06:26:16.699Z,100562.38
2022-11-20T06:28:44.876Z,100565.16
2022-11-20T06:31:14.353Z,100552.78
2022-11-20T06:33:42.667Z,100561.44
2022-11-20T06:36:13.393Z,100554.69
2022-11-20T06:38:41.682Z,100552.78
2022-11-20T06:41:13.676Z,100552.88
2022-11-20T06:43:41.439Z,100555.44
2022-11-20T06:46:10.696Z,100542.97
2022-11-20T06:48:38.450Z,100546.41
2022-11-20T06:51:07.011Z,100559.63
2022-11-20T06:53:34.969Z,100548.50
2022-11-20T06:56:02.744Z,100546.84
2022-11-20T06:58:34.167Z,100558.81
2022-11-20T07:01:02.695Z,100551.41
2022-11-20T07:03:30.922Z,100544.50
2022-11-20T07:05:59.440Z,100534.66
2022-11-20T07:08:27.596Z,100529.13
2022-11-20T07:10:59.540Z,100538.56
2022-11-20T07:13:27.464Z,100537.06
2022-11-20T07:15:57.011Z,100533.50
2022-11-20T07:18:24.708Z,100535.13
2022-11-20T07:20:52.461Z,100538.56
2022-11-20T07:23:20.179Z,100537.00
2022-11-20T07:25:47.906Z,100536.25
2022-11-20T07:28:15.662Z,100538.34
2022-11-20T07:30:43.438Z,100539.50
2022-11-20T07:33:12.518Z,100535.13
2022-11-20T07:35:40.251Z,100532.03
2022-11-20T07:38:08.975Z,100537.06
2022-11-20T07:40:36.769Z,100535.41
2022-11-20T07:43:04.566Z,100537.13
2022-11-20T07:45:32.335Z,100546.22
2022-11-20T07:48:00.105Z,100539.50
2022-11-20T07:50:29.203Z,100550.59
2022-11-20T07:53:03.311Z,100554.47
2022-11-20T07:55:31.111Z,100546.53
2022-11-20T07:57:59.424Z,100545.81
2022-11-20T08:00:28.325Z,100545.94
2022-11-20T08:02:56.324Z,100541.31
2022-11-20T08:05:24.653Z,100543.50
2022-11-20T08:07:53.805Z,100547.16
2022-11-20T08:10:21.534Z,100541.31
2022-11-20T08:13:08.804Z,100539.59
2022-11-20T08:15:37.812Z,100529.97
2022-11-20T08:18:29.904Z,100537.84
2022-11-20T08:20:55.358Z,100547.22
2022-11-20T08:23:25.117Z,100551.16
2022-11-20T08:25:52.893Z,100550.13
2022-11-20T08:28:22.337Z,100553.22
2022-11-20T08:30:51.596Z,100560.31
2022-11-20T08:33:20.218Z,100558.41
2022-11-20T08:35:48.108Z,100554.97
2022-11-20T08:38:15.832Z,100541.38
2022-11-20T08:41:06.161Z,100540.25
2022-11-20T08:43:34.449Z,100541.16
2022-11-20T08:46:02.281Z,100530.69
2022-11-20T08:48:30.036Z,100534.47
2022-11-20T08:51:00.380Z,100536.53
2022-11-20T08:53:28.741Z,100529.66
2022-11-20T08:55:58.510Z,100540.34
2022-11-20T08:58:26.542Z,100537.78
2022-11-20T09:00:54.388Z,100537.81
2022-11-20T09:03:22.389Z,100531.72
2022-11-20T09:05:50.538Z,100531.72
2022-11-20T09:08:18.251Z,100538.72
2022-11-20T09:10:45.969Z,100538.72
2022-11-20T09:13:15.098Z,100534.34
2022-11-20T09:15:42.804Z,100534.34
2022-11-20T09:18:10.525Z,100527.34
2022-11-20T09:20:38.672Z,100519.31
2022-11-20T09:23:06.524Z,100512.34
2022-11-20T09:25:34.282Z,100506.94
2022-11-20T09:28:02.107Z,100504.56
2022-11-20T09:30:31.875Z,100513.38
2022-11-20T09:32:59.719Z,100508.00
2022-11-20T09:35:27.695Z,100510.25
2022-11-20T09:37:55.418Z,100519.78
2022-11-20T09:40:25.408Z,100510.44
2022-11-20T09:42:59.179Z,100508.38
2022-11-20T09:45:39.182Z,100501.22
2022-11-20T09:48:20.052Z,100505.19
2022-11-20T09:50:53.562Z,100504.13
2022-11-20T09:53:31.916Z,100501.44
2022-11-20T09:56:03.007Z,100496.66
2022-11-20T09:58:35.871Z,100497.75
2022-11-20T10:01:13.701Z,100484.88
2022-11-20T10:03:50.055Z,100500.63
2022-11-20T10:06:21.713Z,100496.03
2022-11-20T10:08:57.635Z,100491.50
2022-11-20T10:11:35.948Z,100489.34
2022-11-20T10:14:16.785Z,100491.28
2022-11-20T10:16:56.277Z,100498.50
2022-11-20T10:19:41.041Z,100500.91
2022-11-20T10:22:16.346Z,100499.63
2022-11-20T10:24:50.059Z,100491.25
2022-11-20T10:27:37.362Z,100493.78
2022-11-20T10:30:11.221Z,100493.88
2022-11-20T10:32:42.320Z,100493.03
2022-11-20T10:35:22.143Z,100487.03
2022-11-20T10:37:56.496Z,100496.31
2022-11-20T10:40:30.949Z,100481.56
2022-11-20T10:43:03.550Z,100483.94
2022-11-20T10:45:46.569Z,100476.72
2022-11-20T10:48:19.059Z,100472.34
2022-11-20T10:51:05.352Z,100474.13
2022-11-20T10:53:46.113Z,100478.03
2022-11-20T10:56:21.169Z,100468.91
2022-11-20T10:59:02.359Z,100473.16
2022-11-20T11:01:30.400Z,100460.19
2022-11-20T11:04:00.808Z,100456.16
2022-11-20T11:06:35.904Z,100462.28
2022-11-20T11:09:11.157Z,100450.84
2022-11-20T11:11:40.450Z,100444.34
2022-11-20T11:14:08.789Z,100441.88
2022-11-20T11:16:36.917Z,100449.56
2022-11-20T11:19:14.583Z,100444.22
2022-11-20T11:21:53.833Z,100443.97
2022-11-20T11:24:42.855Z,100444.06
2022-11-20T11:27:17.259Z,100447.34
2022-11-20T11:29:45.947Z,100446.97
2022-11-20T11:32:15.339Z,100442.66
2022-11-20T11:34:44.597Z,100441.25
2022-11-20T11:37:19.105Z,100448.34
2022-11-20T11:39:55.118Z,100452.00
2022-11-20T11:42:32.315Z,100444.09
2022-11-20T11:45:07.532Z,100450.31
2022-11-20T11:47:45.000Z,100446.91
2022-11-20T11:50:20.113Z,100444.38
2022-11-20T11:52:56.427Z,100454.84
2022-11-20T11:55:31.953Z,100446.94
2022-11-20T11:58:11.627Z,100452.28
2022-11-20T12:00:44.064Z,100442.75
2022-11-20T12:03:18.057Z,100437.59
2022-11-20T12:05:49.582Z,100432.19
2022-11-20T12:08:22.429Z,100433.75
2022-11-20T12:10:55.722Z,100430.16
2022-11-20T12:13:34.426Z,100426.63
2022-11-20T12:16:03.889Z,100414.94
2022-11-20T12:18:32.489Z,100419.31
2022-11-20T12:21:14.762Z,100420.00
2022-11-20T12:23:51.598Z,100430.53
2022-11-20T12:26:30.065Z,100419.88
2022-11-20T12:29:10.258Z,100414.56
2022-11-20T12:31:57.957Z,100406.59
2022-11-20T12:34:45.811Z,100407.50
2022-11-20T12:37:28.476Z,100397.56
2022-11-20T12:40:00.783Z,100400.28
2022-11-20T12:43:08.730Z,100403.22
2022-11-20T12:45:55.384Z,100399.91
2022-11-20T12:48:46.401Z,100404.81
2022-11-20T12:51:46.566Z,100403.19
2022-11-20T12:54:48.112Z,100400.16
2022-11-20T12:57:25.172Z,100399.34
2022-11-20T13:00:10.780Z,100395.94
2022-11-20T13:03:00.949Z,100388.25
2022-11-20T13:05:37.140Z,100397.84
2022-11-20T13:08:09.440Z,100397.19
2022-11-20T13:10:45.599Z,100389.72
2022-11-20T13:13:21.659Z,100390.59
2022-11-20T13:15:55.951Z,100393.00
2022-11-20T13:18:23.809Z,100399.22
2022-11-20T13:20:52.688Z,100400.13
2022-11-20T13:23:27.757Z,100398.75
2022-11-20T13:26:08.491Z,100401.50
2022-11-20T13:28:37.899Z,100398.22
2022-11-20T13:31:05.746Z,100397.44
2022-11-20T13:33:36.062Z,100397.50
2022-11-20T13:36:05.873Z,100392.59
2022-11-20T13:38:44.860Z,100391.91
2022-11-20T13:41:32.276Z,100394.53
2022-11-20T13:44:06.471Z,100383.22
2022-11-20T13:46:41.992Z,100384.16
2022-11-20T13:49:12.555Z,100383.16
2022-11-20T13:51:46.346Z,100388.22
2022-11-20T13:54:54.183Z,100384.75
2022-11-20T13:57:56.945Z,100389.13
2022-11-20T14:00:26.619Z,100378.50
2022-11-20T14:03:04.212Z,100381.84
2022-11-20T14:05:36.491Z,100382.63
2022-11-20T14:08:05.795Z,100377.53
2022-11-20T14:10:33.883Z,100376.72
2022-11-20T14:13:17.457Z,100384.75
2022-11-20T14:15:45.479Z,100380.34
2022-11-20T14:18:15.553Z,100376.88
2022-11-20T14:20:44.817Z,100379.59
2022-11-20T14:23:12.861Z,100368.28
2022-11-20T14:25:44.565Z,100370.28
2022-11-20T14:28:25.792Z,100367.78
2022-11-20T14:30:54.126Z,100355.56
2022-11-20T14:33:25.718Z,100353.63
2022-11-20T14:35:55.828Z,100353.59
2022-11-20T14:38:27.195Z,100348.34
2022-11-20T14:40:55.163Z,100358.03
2022-11-20T14:43:26.982Z,100345.94
2022-11-20T14:45:59.316Z,100340.72
2022-11-20T14:48:33.387Z,100337.91
2022-11-20T14:51:01.328Z,100332.66
2022-11-20T14:53:29.146Z,100329.13
2022-11-20T14:55:59.597Z,100339.72
2022-11-20T14:58:32.361Z,100335.53
2022-11-20T15:01:02.652Z,100329.34
2022-11-20T15:03:34.810Z,100339.00
2022-11-20T15:06:03.209Z,100332.06
2022-11-20T15:08:31.384Z,100329.47
2022-11-20T15:10:59.653Z,100336.47
2022-11-20T15:13:33.259Z,100340.81
2022-11-20T15:16:03.355Z,100339.97
2022-11-20T15:18:34.176Z,100323.28
2022-11-20T15:21:04.926Z,100323.28
2022-11-20T15:23:32.838Z,100321.53
2022-11-20T15:26:00.736Z,100320.66
2022-11-20T15:28:33.036Z,100319.81
2022-11-20T15:31:01.161Z,100315.41
2022-11-20T15:33:29.009Z,100309.31
2022-11-20T15:35:56.830Z,100307.53
2022-11-20T15:38:24.873Z,100304.91
2022-11-20T15:40:52.673Z,100314.59
2022-11-20T15:43:23.810Z,100301.53
2022-11-20T15:45:55.233Z,100298.06
2022-11-20T15:48:26.620Z,100298.09
2022-11-20T15:50:59.159Z,100295.53
2022-11-20T15:53:27.054Z,100299.03
2022-11-20T15:55:54.854Z,100293.88
2022-11-20T15:58:23.941Z,100285.16
2022-11-20T16:00:53.209Z,100285.16
2022-11-20T16:03:21.685Z,100281.69
2022-11-20T16:05:49.543Z,100280.84
2022-11-20T16:08:17.397Z,100282.59
2022-11-20T16:10:45.211Z,100278.22
2022-11-20T16:13:35.507Z,100269.47
2022-11-20T16:16:07.546Z,100261.63
2022-11-20T16:18:35.605Z,100256.38
2022-11-20T16:21:03.479Z,100256.41
2022-11-20T16:23:31.347Z,100251.16
2022-11-20T16:25:59.083Z,100258.16
2022-11-20T16:28:26.928Z,100255.53
2022-11-20T16:30:54.666Z,100254.63
2022-11-20T16:33:23.775Z,100253.78
2022-11-20T16:35:51.546Z,100253.75
2022-11-20T16:38:19.309Z,100244.16
2022-11-20T16:40:47.213Z,100235.41
2022-11-20T16:43:15.983Z,100236.31
2022-11-20T16:45:45.200Z,100239.78
2022-11-20T16:48:17.373Z,100239.78
2022-11-20T16:50:51.812Z,100238.94
2022-11-20T16:53:20.876Z,100239.81
2022-11-20T16:55:48.958Z,100242.44
2022-11-20T16:58:17.154Z,100233.69
2022-11-20T17:00:51.155Z,100232.81
2022-11-20T17:03:20.857Z,100232.81
2022-11-20T17:05:50.079Z,100245.03
2022-11-20T17:08:17.898Z,100232.81
2022-11-20T17:10:45.726Z,100236.28
2022-11-20T17:13:13.543Z,100239.75
2022-11-20T17:15:41.393Z,100236.19
2022-11-20T17:18:09.161Z,100231.91
2022-11-20T17:20:36.965Z,100231.03
2022-11-20T17:23:06.201Z,100223.16
2022-11-20T17:25:34.513Z,100219.69
2022-11-20T17:28:02.401Z,100217.03
2022-11-20T17:30:30.186Z,100212.69
2022-11-20T17:32:58.037Z,100210.97
2022-11-20T17:35:25.942Z,100210.09
2022-11-20T17:37:54.090Z,100212.63
2022-11-20T17:40:27.328Z,100205.63
2022-11-20T17:42:55.960Z,100212.66
2022-11-20T17:45:23.812Z,100210.94
2022-11-20T17:47:51.668Z,100201.31
2022-11-20T17:50:19.650Z,100201.28
2022-11-20T17:52:47.463Z,100199.53
2022-11-20T17:55:16.099Z,100192.59
2022-11-20T17:57:53.266Z,100191.75
2022-11-20T18:00:22.129Z,100186.50
2022-11-20T18:02:50.383Z,100180.44
2022-11-20T18:05:18.381Z,100185.66
2022-11-20T18:07:46.250Z,100183.91
2022-11-20T18:10:14.208Z,100178.69
2022-11-20T18:12:41.980Z,100176.06
2022-11-20T18:15:11.321Z,100173.44
2022-11-20T18:17:39.153Z,100175.16
2022-11-20T18:22:57.110Z,100171.66
2022-11-20T18:25:25.157Z,100161.19
2022-11-20T18:27:52.947Z,100158.59
2022-11-20T18:30:22.285Z,100162.09
2022-11-20T18:32:50.830Z,100166.44
2022-11-20T18:35:18.748Z,100155.13
2022-11-20T18:37:46.759Z,100152.50
2022-11-20T18:40:15.108Z,100156.00
2022-11-20T18:43:00.329Z,100160.38
2022-11-20T18:45:30.312Z,100150.78
2022-11-20T18:47:58.162Z,100146.38
2022-11-20T18:50:25.984Z,100143.72
2022-11-20T18:52:53.761Z,100143.69
2022-11-20T18:55:24.300Z,100141.97
2022-11-20T18:57:52.617Z,100139.34
2022-11-20T19:00:20.848Z,100133.25
2022-11-20T19:02:53.397Z,100122.78
2022-11-20T19:05:21.295Z,100116.69
2022-11-20T19:07:49.186Z,100113.19
2022-11-20T19:10:20.157Z,100109.72
2022-11-20T19:12:48.017Z,100099.22
2022-11-20T19:15:15.929Z,100095.75
2022-11-20T19:17:43.759Z,100103.63
2022-11-20T19:20:13.501Z,100095.78
2022-11-20T19:22:41.275Z,100096.63
2022-11-20T19:25:09.653Z,100094.88
2022-11-20T19:27:37.484Z,100096.63
2022-11-20T19:30:06.307Z,100093.13
2022-11-20T19:32:35.214Z,100096.66
2022-11-20T19:35:03.563Z,100089.63
2022-11-20T19:37:35.141Z,100099.25
2022-11-20T19:40:04.655Z,100090.53
2022-11-20T19:42:32.784Z,100094.00
2022-11-20T19:45:00.556Z,100090.56
2022-11-20T19:47:52.820Z,100096.69
2022-11-20T19:50:16.942Z,100097.53
2022-11-20T19:52:46.195Z,100101.88
2022-11-20T19:55:14.419Z,100094.94
2022-11-20T19:57:42.193Z,100073.94
2022-11-20T20:00:12.251Z,100082.69
2022-11-20T20:02:40.189Z,100075.72
2022-11-20T20:05:08.653Z,100073.94
2022-11-20T20:07:36.527Z,100066.97
2022-11-20T20:10:06.629Z,100069.59
2022-11-20T20:12:34.472Z,100059.13
2022-11-20T20:15:04.151Z,100060.00
2022-11-20T20:17:31.999Z,100050.44
2022-11-20T20:19:59.828Z,100053.91
2022-11-20T20:22:27.628Z,100046.94
2022-11-20T20:24:55.419Z,100045.19
2022-11-20T20:27:24.622Z,100037.34
2022-11-20T20:29:52.553Z,100035.56
2022-11-20T20:32:20.387Z,100034.66
2022-11-20T20:34:48.249Z,100029.41
2022-11-20T20:37:16.064Z,100033.84
2022-11-20T20:39:43.881Z,100043.44
2022-11-20T20:42:11.642Z,100035.56
2022-11-20T20:44:57.953Z,100023.34
2022-11-20T20:47:33.853Z,100021.56
2022-11-20T20:50:01.933Z,100020.72
2022-11-20T20:52:30.135Z,100018.16
2022-11-20T20:54:57.981Z,100009.38
2022-11-20T20:57:27.645Z,99999.72
2022-11-20T20:59:56.961Z,99995.38
2022-11-20T21:02:25.460Z,99998.78
2022-11-20T21:04:53.641Z,99998.78
2022-11-20T21:07:21.683Z,100003.09
2022-11-20T21:09:49.519Z,99999.50
2022-11-20T21:12:17.396Z,99989.91
2022-11-20T21:14:45.258Z,99987.22
2022-11-20T21:17:15.447Z,99979.44
2022-11-20T21:19:43.433Z,99965.38
2022-11-20T21:22:10.200Z,99973.25
2022-11-20T21:24:38.088Z,99969.66
2022-11-20T21:27:06.824Z,99952.94
2022-11-20T21:29:34.707Z,99944.19
2022-11-20T21:32:02.576Z,99938.88
2022-11-20T21:34:31.813Z,99946.13
2022-11-20T21:36:59.596Z,99946.13
2022-11-20T21:39:27.326Z,99944.31
2022-11-20T21:41:55.326Z,99940.88
2022-11-20T21:44:30.929Z,99939.13
2022-11-20T21:46:59.226Z,99928.59
2022-11-20T21:49:27.020Z,99932.19
2022-11-20T21:51:56.134Z,99923.44
2022-11-20T21:54:24.139Z,99925.25
2022-11-20T21:56:52.219Z,99925.31
2022-11-20T21:59:20.026Z,99921.94
2022-11-20T22:01:47.892Z,99918.41
2022-11-20T22:04:16.435Z,99919.19
2022-11-20T22:06:44.370Z,99913.03
2022-11-20T22:09:14.381Z,99905.06
2022-11-20T22:11:42.253Z,99916.47
2022-11-20T22:14:22.278Z,99904.06
2022-11-20T22:16:52.062Z,99897.94
2022-11-20T22:19:21.179Z,99899.81
2022-11-20T22:21:50.453Z,99898.94
2022-11-20T22:24:21.579Z,99897.22
2022-11-20T22:26:50.255Z,99893.56
2022-11-20T22:29:20.717Z,99896.97
2022-11-20T22:31:49.033Z,99895.16
2022-11-20T22:34:16.831Z,99900.44
2022-11-20T22:36:44.702Z,99900.53
2022-11-20T22:39:12.456Z,99904.00
2022-11-20T22:41:41.612Z,99902.31
2022-11-20T22:44:09.648Z,99902.44
2022-11-20T22:46:38.317Z,99891.88
2022-11-20T22:49:08.351Z,99893.59
2022-11-20T22:51:38.377Z,99891.94
2022-11-20T22:54:06.588Z,99899.69
2022-11-20T22:56:35.222Z,99893.47
2022-11-20T22:59:04.909Z,99898.72
2022-11-20T23:01:34.091Z,99900.47
2022-11-20T23:04:03.479Z,99890.91
2022-11-20T23:06:34.032Z,99899.72
2022-11-20T23:09:02.231Z,99901.41
2022-11-20T23:11:31.572Z,99901.59
2022-11-20T23:14:01.490Z,99903.31
2022-11-20T23:16:32.321Z,99913.75
2022-11-20T23:19:01.912Z,99902.41
2022-11-20T23:21:30.321Z,99898.78
2022-11-20T23:23:59.257Z,99897.13
2022-11-20T23:26:28.930Z,99896.31
2022-11-20T23:28:58.607Z,99900.56
2022-11-20T23:31:27.711Z,99894.56
2022-11-20T23:33:56.919Z,99902.59
2022-11-20T23:36:24.707Z,99895.63
2022-11-20T23:38:52.512Z,99894.69
2022-11-20T23:41:20.297Z,99899.09
2022-11-20T23:43:48.052Z,99897.31
2022-11-20T23:46:16.998Z,99895.69
2022-11-20T23:48:45.811Z,99880.69
2022-11-20T23:51:15.351Z,99886.84
2022-11-20T23:53:43.415Z,99890.44
2022-11-20T23:56:14.139Z,99890.44
2022-11-20T23:58:42.346Z,99882.59
